createdAt,value
2018-11-07T11:51:48.330Z,960.7
2018-11-07T12:07:12.267Z,960.7
2018-11-07T12:08:38.417Z,960.6
2018-11-07T13:59:32.475Z,961.3
2018-11-07T14:00:35.878Z,961.4
2018-11-07T14:01:39.306Z,961.7
2018-11-07T14:02:42.743Z,961.7
2018-11-07T14:03:46.161Z,961.7
2018-11-07T14:05:07.820Z,961.7
2018-11-07T14:15:11.321Z,961.9
2018-11-07T14:25:14.795Z,954.9
2018-11-07T14:35:18.261Z,955.4
2018-11-07T14:45:21.710Z,955.8
2018-11-07T14:55:25.172Z,956.1
2018-11-07T15:05:28.886Z,956.4
2018-11-07T15:15:32.394Z,956.9
2018-11-07T15:25:35.915Z,957.3
2018-11-07T15:35:39.355Z,957.8
2018-11-07T15:45:42.849Z,958.1
2018-11-07T15:55:46.307Z,958.3
2018-11-07T16:05:49.727Z,958.8
2018-11-07T16:15:53.280Z,959.2
2018-11-07T16:25:57.331Z,959.4
2018-11-07T16:36:00.888Z,959.5
2018-11-07T16:46:04.347Z,959.9
2018-11-07T16:56:07.797Z,960
2018-11-07T17:06:11.242Z,960.4
2018-11-07T17:16:14.655Z,960.9
2018-11-07T17:26:18.085Z,960.9
2018-11-07T17:36:21.548Z,961.4
2018-11-07T17:46:25.014Z,961.4
2018-11-07T17:56:28.829Z,961.8
2018-11-07T18:06:32.305Z,961.8
2018-11-07T18:16:35.781Z,961.7
2018-11-07T18:26:39.249Z,962.3
2018-11-07T18:36:42.716Z,962.1
2018-11-07T18:46:46.180Z,962.3
2018-11-07T18:56:49.607Z,962.6
2018-11-07T19:06:53.019Z,962.9
2018-11-07T19:16:56.845Z,963
2018-11-07T19:27:00.819Z,963.5
2018-11-07T19:37:04.347Z,962.9
2018-11-07T19:47:08.485Z,963.8
2018-11-07T19:57:11.955Z,963.7
2018-11-07T20:07:16.436Z,964
2018-11-07T20:17:19.848Z,964
2018-11-07T20:27:23.304Z,964.1
2018-11-07T20:37:26.759Z,964.2
2018-11-07T20:47:30.197Z,964.5
2018-11-07T20:57:33.647Z,964.1
2018-11-07T21:07:37.108Z,964.6
2018-11-07T21:17:40.558Z,964.2
2018-11-07T21:27:43.995Z,964.3
2018-11-07T21:37:47.400Z,964.6
2018-11-07T21:47:50.863Z,964.7
2018-11-07T21:57:54.325Z,964.7
2018-11-07T22:07:57.770Z,964.9
2018-11-07T22:18:01.216Z,965
2018-11-07T22:28:04.669Z,965.3
2018-11-07T22:38:08.127Z,965.1
2018-11-07T22:48:11.577Z,965.2
2018-11-07T22:58:15.027Z,965.5
2018-11-07T23:08:18.500Z,965.3
2018-11-07T23:18:21.991Z,965.7
2018-11-07T23:28:25.400Z,965.6
2018-11-07T23:38:28.846Z,966.2
2018-11-07T23:48:32.316Z,966.3
2018-11-07T23:58:35.756Z,966.6
